KPWT

Bremerton National Airport

Bremerton, Washington, USA
METAR KPWT 170011Z AUTO 21006KT 10SM -RA FEW009 BKN060 OVC080 09/08 A2967 RMK AO2 RAB02 PRESRR P0001
Observed Flight Rules
Dec-17 @ 00:11 UTC (13 minutes ago) Visual Flight Rules
Wind Visibility Clouds Conditions
210° at 6 knots 10 miles
  • Few at 900' AGL
  • Broken at 6,000' AGL
  • Overcast at 8,000' AGL
  • Light Rain
Temperatures Readings Precipitation
Current 9°C / 48°F
Dewpoint 8°C / 46°F
Humidity 94%
Altimeter 29.67" Hg
Pressure 1005 hPa
Elevation 147
Current Rain 0.01
METAR KPWT 170011Z AUTO 21006KT 10SM -RA FEW009 BKN060 OVC080 09/08 A2967 RMK AO2 RAB02 PRESRR P0001
Observed Flight Rules
Dec-17 @ 00:11 UTC
(13 minutes ago)
VFR
Wind Visibility
210° at 6 knots 10 miles
Clouds
  • Few at 900' AGL
  • Broken at 6,000' AGL
  • Overcast at 8,000' AGL
Conditions
  • Light Rain
Temperature Dewpoint
9°C / 48°F 8°C / 46°F
Humidity Altimeter Pressure
94% 29.67" Hg 1005 hPa
Current Rain
0.01